Time;durP1;ratioP1;P1;durP2;ratioP2;P2;SDS_P1;SDS_P2;PMS_P1;PMS_P2;Temp;Humidity;BMP_temperature;BMP_pressure;BME280_temperature;BME280_humidity;BME280_pressure;Samples;Min_cycle;Max_cycle;Signal;HPM_P1;HPM_P2
2021/01/29 00:02:17;;;;;;;5.30;4.70;;;9.50;99.90;;;;;;4995641;28;20267;-45
2021/01/29 00:04:48;;;;;;;5.60;5.00;;;9.40;99.90;;;;;;4984189;28;20257;-45
2021/01/29 00:07:19;;;;;;;4.93;4.53;;;9.40;99.90;;;;;;4974746;28;20302;-45
2021/01/29 00:09:50;;;;;;;5.45;5.00;;;9.20;99.90;;;;;;4971459;28;20268;-46
2021/01/29 00:12:21;;;;;;;6.07;5.53;;;9.20;99.90;;;;;;4983515;28;20701;-46
2021/01/29 00:14:51;;;;;;;5.30;4.80;;;9.10;99.90;;;;;;4986948;28;20563;-48
2021/01/29 00:17:21;;;;;;;5.65;5.15;;;9.00;99.90;;;;;;4972609;28;20218;-50
2021/01/29 00:19:51;;;;;;;5.88;5.38;;;8.90;99.90;;;;;;4984668;28;20273;-46
2021/01/29 00:22:21;;;;;;;5.90;5.28;;;8.90;99.90;;;;;;4983935;28;20219;-46
2021/01/29 00:24:52;;;;;;;6.72;6.13;;;8.80;99.90;;;;;;4973259;28;20210;-51
2021/01/29 00:27:22;;;;;;;5.63;5.13;;;8.70;99.90;;;;;;4964772;29;20194;-48
2021/01/29 00:29:53;;;;;;;5.68;4.90;;;8.80;99.90;;;;;;4965482;29;20193;-47
2021/01/29 00:32:23;;;;;;;8.00;5.72;;;8.70;99.90;;;;;;4967495;28;20211;-50
2021/01/29 00:34:53;;;;;;;6.40;5.90;;;8.70;99.90;;;;;;4975909;28;20223;-51
2021/01/29 00:37:23;;;;;;;6.35;5.50;;;8.70;99.90;;;;;;4967105;28;20525;-50
2021/01/29 00:39:54;;;;;;;9.20;6.50;;;8.70;99.90;;;;;;4966699;28;20221;-48
2021/01/29 00:42:24;;;;;;;388.85;62.38;;;8.80;99.90;;;;;;4974986;28;20205;-50
2021/01/29 00:44:54;;;;;;;936.63;140.73;;;9.00;99.90;;;;;;4974027;28;20206;-49
2021/01/29 00:47:24;;;;;;;7.63;6.70;;;9.00;99.90;;;;;;4964066;28;20257;-50
2021/01/29 00:49:54;;;;;;;7.32;6.63;;;8.90;99.90;;;;;;4996317;28;20204;-47
2021/01/29 00:52:24;;;;;;;6.93;6.32;;;8.80;99.90;;;;;;4983477;28;20251;-50
2021/01/29 00:54:56;;;;;;;7.32;6.72;;;8.70;99.90;;;;;;4977753;28;20268;-49
2021/01/29 00:57:26;;;;;;;7.13;6.43;;;8.60;99.90;;;;;;4976640;28;20221;-46
2021/01/29 00:59:56;;;;;;;7.47;6.72;;;8.60;99.90;;;;;;4973132;28;20223;-50
2021/01/29 01:02:26;;;;;;;7.63;6.82;;;8.50;99.90;;;;;;4967810;28;20234;-52
2021/01/29 01:04:56;;;;;;;8.10;7.30;;;8.50;99.90;;;;;;4964631;28;20201;-48
2021/01/29 01:07:26;;;;;;;7.40;6.70;;;8.50;99.90;;;;;;4980937;28;20200;-49
2021/01/29 01:09:57;;;;;;;7.88;7.18;;;8.40;99.90;;;;;;4968305;28;20200;-46
2021/01/29 01:12:27;;;;;;;8.25;7.47;;;8.50;99.90;;;;;;4977224;28;20291;-49
2021/01/29 01:14:58;;;;;;;7.88;7.28;;;8.60;99.90;;;;;;4981251;28;20523;-50
2021/01/29 01:17:28;;;;;;;7.55;6.80;;;8.60;99.90;;;;;;4995337;28;20227;-47
2021/01/29 01:19:58;;;;;;;8.50;6.45;;;8.50;99.90;;;;;;4965312;28;20285;-51
2021/01/29 01:22:28;;;;;;;9.18;8.38;;;8.50;99.90;;;;;;4974528;28;20755;-48
2021/01/29 01:25:00;;;;;;;9.10;8.23;;;8.40;99.90;;;;;;4975017;28;20346;-46
2021/01/29 01:27:30;;;;;;;9.35;8.32;;;8.40;99.90;;;;;;4964817;28;20210;-44
2021/01/29 01:30:00;;;;;;;10.60;9.60;;;8.50;99.90;;;;;;4967871;28;20205;-44
2021/01/29 01:32:30;;;;;;;10.48;8.68;;;8.40;99.90;;;;;;4980096;28;20209;-50
2021/01/29 01:35:00;;;;;;;8.50;7.80;;;8.40;99.90;;;;;;4983117;28;20291;-48
2021/01/29 01:37:30;;;;;;;12.25;8.27;;;8.50;99.90;;;;;;4983030;28;20228;-46
2021/01/29 01:40:01;;;;;;;92.55;24.15;;;8.40;99.90;;;;;;4983990;28;20220;-43
2021/01/29 01:42:31;;;;;;;9.32;8.48;;;8.40;99.90;;;;;;4964909;28;20363;-47
2021/01/29 01:45:02;;;;;;;8.80;7.30;;;8.40;99.90;;;;;;4971307;28;20279;-47
2021/01/29 01:47:35;;;;;;;11.07;7.53;;;8.20;99.90;;;;;;4982316;28;20205;-44
2021/01/29 01:50:15;;;;;;;9.98;8.63;;;8.20;99.90;;;;;;4990324;28;20286;-46
2021/01/29 01:52:46;;;;;;;9.55;8.57;;;8.20;99.90;;;;;;4973024;28;20204;-44
2021/01/29 01:55:21;;;;;;;10.23;9.32;;;8.30;99.90;;;;;;4973941;28;20277;-46
2021/01/29 01:57:54;;;;;;;11.80;10.70;;;8.20;99.90;;;;;;4977536;28;20256;-48
2021/01/29 02:00:26;;;;;;;11.05;10.15;;;8.20;99.90;;;;;;4966759;28;20209;-43
2021/01/29 02:03:02;;;;;;;11.05;10.02;;;8.20;99.90;;;;;;4981040;28;20204;-43
2021/01/29 02:05:35;;;;;;;10.65;9.55;;;8.20;99.90;;;;;;4974829;28;20208;-45
2021/01/29 02:08:07;;;;;;;11.27;10.27;;;8.30;99.90;;;;;;4982404;28;20256;-47
2021/01/29 02:10:39;;;;;;;11.68;10.57;;;8.30;99.90;;;;;;4964159;28;20193;-48
2021/01/29 02:13:10;;;;;;;10.52;9.43;;;8.10;99.90;;;;;;4979524;28;20228;-45
2021/01/29 02:15:45;;;;;;;9.30;8.40;;;8.10;99.90;;;;;;4979037;28;20212;-43
2021/01/29 02:18:30;;;;;;;11.40;10.30;;;8.10;99.90;;;;;;4974846;28;20578;-42
2021/01/29 02:21:42;;;;;;;10.38;9.57;;;8.10;99.90;;;;;;4973430;28;20258;-43
2021/01/29 02:25:03;;;;;;;11.75;10.73;;;8.10;99.90;;;;;;4968631;28;20232;-42
2021/01/29 02:27:47;;;;;;;11.40;10.40;;;8.20;99.90;;;;;;4900368;29;20211;-44
2021/01/29 02:30:51;;;;;;;12.20;10.90;;;8.20;99.90;;;;;;4903447;29;20211;-44
2021/01/29 02:34:01;;;;;;;13.68;12.32;;;8.20;99.90;;;;;;4891800;29;20291;-43
2021/01/29 02:37:03;;;;;;;11.27;10.27;;;8.30;99.90;;;;;;4895139;29;20617;-47
2021/01/29 02:40:01;;;;;;;12.32;11.20;;;8.30;99.90;;;;;;4894079;29;20214;-47
2021/01/29 02:42:53;;;;;;;13.23;12.10;;;8.30;99.90;;;;;;4904813;29;20236;-46
2021/01/29 02:45:32;;;;;;;12.93;11.82;;;8.20;99.90;;;;;;4890660;29;20212;-43
2021/01/29 02:48:12;;;;;;;14.70;13.30;;;8.20;99.90;;;;;;4909244;29;20216;-43
2021/01/29 02:50:49;;;;;;;13.70;12.40;;;8.20;99.90;;;;;;4895883;29;20212;-45
2021/01/29 02:53:34;;;;;;;14.32;13.02;;;8.20;99.90;;;;;;4902818;29;20207;-42
2021/01/29 02:56:13;;;;;;;13.25;12.10;;;8.20;99.90;;;;;;4897119;29;20739;-45
2021/01/29 02:58:50;;;;;;;13.38;11.88;;;8.30;99.90;;;;;;4905795;29;20206;-43
2021/01/29 03:01:25;;;;;;;13.60;12.30;;;8.20;99.90;;;;;;4911667;29;20226;-43
2021/01/29 03:04:01;;;;;;;14.80;13.25;;;8.10;99.90;;;;;;4964300;28;20221;-44
2021/01/29 03:06:36;;;;;;;14.68;13.35;;;8.10;99.90;;;;;;4977889;28;20205;-44
2021/01/29 03:09:12;;;;;;;14.50;13.30;;;8.10;99.90;;;;;;4977911;28;20195;-43
2021/01/29 03:11:49;;;;;;;15.55;14.15;;;8.10;99.90;;;;;;4981919;28;20658;-44
2021/01/29 03:14:24;;;;;;;80.95;24.65;;;8.10;99.90;;;;;;4985490;28;20204;-45
2021/01/29 03:16:57;;;;;;;15.90;14.30;;;8.30;99.90;;;;;;4984522;28;20675;-43
2021/01/29 03:19:30;;;;;;;216.75;41.47;;;8.30;99.90;;;;;;4977427;28;20197;-48
2021/01/29 03:22:03;;;;;;;14.07;12.88;;;8.20;99.90;;;;;;4984638;28;20271;-48
2021/01/29 03:24:38;;;;;;;14.48;13.07;;;8.20;99.90;;;;;;4978044;28;20376;-44
2021/01/29 03:27:15;;;;;;;13.75;12.45;;;8.10;99.90;;;;;;4982880;28;20192;-39
2021/01/29 03:29:47;;;;;;;14.05;12.85;;;8.10;99.90;;;;;;4976956;28;20205;-45
2021/01/29 03:32:18;;;;;;;15.68;14.23;;;8.10;99.90;;;;;;4975166;28;20224;-44
2021/01/29 03:34:55;;;;;;;14.70;13.23;;;8.00;99.90;;;;;;4979326;28;20216;-44
2021/01/29 03:37:41;;;;;;;15.60;14.00;;;8.00;99.90;;;;;;4965902;28;20609;-47
2021/01/29 03:40:12;;;;;;;14.32;12.82;;;8.00;99.90;;;;;;4972184;28;20199;-45
2021/01/29 03:42:56;;;;;;;14.55;13.07;;;8.00;99.90;;;;;;4981320;28;20280;-42
2021/01/29 03:45:35;;;;;;;17.45;13.65;;;8.00;99.90;;;;;;4982182;28;20304;-44
2021/01/29 03:48:18;;;;;;;15.75;14.35;;;8.00;99.90;;;;;;4968103;28;20305;-42
2021/01/29 03:51:02;;;;;;;21.00;19.02;;;8.00;99.90;;;;;;4970517;28;20217;-48
2021/01/29 03:53:41;;;;;;;20.20;18.50;;;8.00;99.90;;;;;;4980473;28;20239;-44
2021/01/29 03:56:28;;;;;;;22.63;20.63;;;8.00;99.90;;;;;;4967441;28;20213;-42
2021/01/29 03:59:05;;;;;;;19.85;17.90;;;8.00;99.90;;;;;;4985403;28;20208;-45
2021/01/29 04:01:52;;;;;;;17.63;16.10;;;8.00;99.90;;;;;;4978113;28;20200;-47
2021/01/29 04:04:34;;;;;;;19.83;17.67;;;8.00;99.90;;;;;;4967060;28;20225;-42
2021/01/29 04:07:12;;;;;;;21.42;19.35;;;8.00;99.90;;;;;;4986547;28;20209;-42
2021/01/29 04:09:48;;;;;;;20.50;18.40;;;7.90;99.90;;;;;;4968558;28;20262;-41
2021/01/29 04:12:56;;;;;;;19.60;17.80;;;7.80;99.90;;;;;;4964878;28;20237;-41
2021/01/29 04:15:37;;;;;;;18.75;16.85;;;7.70;99.90;;;;;;4969785;28;20208;-41
2021/01/29 04:18:14;;;;;;;18.25;16.58;;;7.80;99.90;;;;;;4975322;28;20290;-41
2021/01/29 04:20:47;;;;;;;17.88;16.02;;;7.90;99.90;;;;;;4969313;28;20204;-44
2021/01/29 04:23:23;;;;;;;17.88;16.02;;;7.80;99.90;;;;;;4978261;28;20223;-42
2021/01/29 04:26:00;;;;;;;18.75;17.00;;;7.80;99.90;;;;;;4973969;28;20205;-44
2021/01/29 04:28:34;;;;;;;17.77;16.10;;;7.80;99.90;;;;;;4983902;28;20258;-44
2021/01/29 04:31:09;;;;;;;17.17;15.68;;;7.90;99.90;;;;;;4983496;28;20208;-44
2021/01/29 04:33:43;;;;;;;18.98;17.17;;;7.90;99.90;;;;;;4977091;28;20216;-43
2021/01/29 04:36:16;;;;;;;19.80;17.90;;;7.90;99.90;;;;;;4964455;28;20219;-46
2021/01/29 04:38:50;;;;;;;18.90;17.15;;;7.90;99.90;;;;;;4989699;28;20725;-44
2021/01/29 04:41:33;;;;;;;17.65;15.82;;;8.00;99.90;;;;;;4974213;28;20200;-45
2021/01/29 04:44:20;;;;;;;18.23;16.42;;;8.00;99.90;;;;;;4986729;28;20665;-44
2021/01/29 04:47:03;;;;;;;18.08;16.38;;;8.00;99.90;;;;;;4979995;28;20282;-44
2021/01/29 04:49:51;;;;;;;18.13;16.52;;;8.00;99.90;;;;;;4964720;28;20269;-42
2021/01/29 04:53:10;;;;;;;19.73;17.75;;;8.00;99.90;;;;;;4968053;28;20212;-44
2021/01/29 04:56:11;;;;;;;18.55;16.65;;;8.00;99.90;;;;;;4981126;28;20197;-42
2021/01/29 04:58:52;;;;;;;20.13;18.23;;;8.00;99.90;;;;;;4974524;28;20199;-44
2021/01/29 05:01:43;;;;;;;18.42;16.75;;;7.90;99.90;;;;;;4980293;28;20208;-45
2021/01/29 05:04:45;;;;;;;26.85;18.48;;;8.00;99.90;;;;;;4964732;28;20240;-44
2021/01/29 05:07:45;;;;;;;18.20;16.48;;;8.00;99.90;;;;;;4982748;28;20226;-43
2021/01/29 05:10:49;;;;;;;18.27;16.58;;;7.90;99.90;;;;;;4982278;28;20288;-43
2021/01/29 05:13:51;;;;;;;18.33;16.33;;;7.80;99.90;;;;;;4951882;28;20221;-46
2021/01/29 05:16:50;;;;;;;17.88;16.17;;;7.80;99.90;;;;;;4964236;28;20201;-43
2021/01/29 05:19:49;;;;;;;18.25;16.52;;;7.80;99.90;;;;;;4980728;28;20275;-42
2021/01/29 05:22:42;;;;;;;20.52;18.42;;;7.90;99.90;;;;;;4983538;28;20208;-42
2021/01/29 05:25:52;;;;;;;19.23;17.38;;;7.90;99.90;;;;;;4970429;28;20231;-42
2021/01/29 05:29:03;;;;;;;21.30;19.35;;;7.80;99.90;;;;;;4971685;28;20204;-41
2021/01/29 05:31:49;;;;;;;21.48;19.27;;;7.80;99.90;;;;;;4972083;28;20214;-41
2021/01/29 05:34:41;;;;;;;21.25;19.35;;;7.80;99.90;;;;;;4982582;28;20209;-41
2021/01/29 05:37:59;;;;;;;21.50;19.40;;;7.80;99.90;;;;;;4973529;28;20218;-44
2021/01/29 05:40:44;;;;;;;21.17;19.02;;;7.80;99.90;;;;;;4981125;28;20208;-42
2021/01/29 05:43:50;;;;;;;21.00;18.90;;;7.80;99.90;;;;;;4982773;28;20255;-43
2021/01/29 05:46:27;;;;;;;20.23;18.33;;;7.90;99.90;;;;;;4981824;28;20208;-42
2021/01/29 05:49:30;;;;;;;21.50;19.50;;;7.90;99.90;;;;;;4976351;28;20525;-41
2021/01/29 05:52:32;;;;;;;23.27;20.98;;;7.90;99.90;;;;;;4964128;28;20251;-43
2021/01/29 05:55:24;;;;;;;23.40;21.00;;;7.80;99.90;;;;;;4977217;28;20219;-41
2021/01/29 05:58:13;;;;;;;23.95;21.52;;;7.80;99.90;;;;;;4966602;28;20212;-43
2021/01/29 06:01:27;;;;;;;23.80;21.42;;;7.70;99.90;;;;;;4974828;28;20212;-42
2021/01/29 06:04:25;;;;;;;21.83;19.73;;;7.70;99.90;;;;;;4978123;28;20734;-41
2021/01/29 06:07:35;;;;;;;25.40;22.80;;;7.70;99.90;;;;;;4978756;28;20213;-41
2021/01/29 06:10:35;;;;;;;25.60;23.10;;;7.70;99.90;;;;;;4982551;28;20584;-42
2021/01/29 06:13:30;;;;;;;23.63;21.20;;;7.70;99.90;;;;;;4970436;28;20240;-41
2021/01/29 06:16:37;;;;;;;24.25;21.75;;;7.70;99.90;;;;;;4981322;28;20209;-43
2021/01/29 06:19:45;;;;;;;21.05;19.05;;;7.70;99.90;;;;;;4981618;28;20251;-41
2021/01/29 06:23:14;;;;;;;27.15;21.92;;;7.80;99.90;;;;;;4979545;28;20209;-42
2021/01/29 06:26:05;;;;;;;23.05;20.75;;;7.80;99.90;;;;;;4933237;29;20218;-42
2021/01/29 06:29:21;;;;;;;23.17;20.65;;;7.90;99.90;;;;;;4940808;29;20213;-42
2021/01/29 06:32:35;;;;;;;22.63;20.35;;;7.80;99.90;;;;;;4934278;29;20218;-42
2021/01/29 06:35:34;;;;;;;22.67;20.17;;;7.80;99.90;;;;;;4939878;29;20300;-43
2021/01/29 06:38:20;;;;;;;22.13;19.92;;;7.70;99.90;;;;;;4937581;29;20237;-40
2021/01/29 06:41:10;;;;;;;24.00;21.50;;;7.70;99.90;;;;;;4940741;29;20203;-41
2021/01/29 06:43:53;;;;;;;23.13;20.60;;;7.70;99.90;;;;;;4945321;29;20365;-42
2021/01/29 06:46:45;;;;;;;21.83;19.58;;;7.70;99.90;;;;;;4954566;29;20672;-43
2021/01/29 06:49:41;;;;;;;22.35;19.95;;;7.70;99.90;;;;;;4944087;29;20212;-45
2021/01/29 06:52:43;;;;;;;21.52;19.42;;;7.60;99.90;;;;;;4952531;29;20206;-41
2021/01/29 06:55:40;;;;;;;26.40;23.63;;;7.60;99.90;;;;;;4947272;29;20206;-43
2021/01/29 06:58:58;;;;;;;26.08;23.27;;;7.60;99.90;;;;;;4981289;28;20708;-44
2021/01/29 07:01:50;;;;;;;22.70;20.20;;;7.50;99.90;;;;;;4993933;28;20212;-42
2021/01/29 07:04:50;;;;;;;23.08;20.75;;;7.60;99.90;;;;;;4988879;28;20236;-44
2021/01/29 07:07:35;;;;;;;23.92;21.65;;;7.60;99.90;;;;;;4975748;28;20251;-45
2021/01/29 07:10:22;;;;;;;23.48;21.27;;;7.60;99.90;;;;;;4970186;28;20232;-47
2021/01/29 07:13:07;;;;;;;23.00;20.63;;;7.60;99.90;;;;;;4965819;28;20292;-44
2021/01/29 07:15:51;;;;;;;21.63;19.42;;;7.60;99.90;;;;;;4987480;28;20196;-44
2021/01/29 07:18:50;;;;;;;22.85;20.45;;;7.50;99.90;;;;;;4983716;28;20197;-42
2021/01/29 07:21:35;;;;;;;21.58;19.13;;;7.50;99.90;;;;;;4953300;28;20250;-44
2021/01/29 07:24:24;;;;;;;21.52;19.30;;;7.50;99.90;;;;;;4970864;28;20224;-46
2021/01/29 07:27:04;;;;;;;21.77;19.70;;;7.50;99.90;;;;;;4984651;28;20204;-43
2021/01/29 07:29:59;;;;;;;26.98;20.48;;;7.60;99.90;;;;;;4989540;28;20209;-42
2021/01/29 07:32:43;;;;;;;21.38;19.17;;;7.60;99.90;;;;;;4986487;28;20213;-46
2021/01/29 07:35:25;;;;;;;21.85;19.75;;;7.60;99.90;;;;;;4985233;28;20224;-43
2021/01/29 07:38:38;;;;;;;20.15;18.10;;;7.50;99.90;;;;;;4986112;28;20216;-43
2021/01/29 07:41:29;;;;;;;21.05;18.58;;;7.60;99.90;;;;;;4965593;28;20212;-44
2021/01/29 07:44:26;;;;;;;19.27;17.38;;;7.60;99.90;;;;;;4966694;28;20734;-44
2021/01/29 07:47:11;;;;;;;21.67;17.13;;;7.60;99.90;;;;;;4984207;28;20208;-43
2021/01/29 07:49:58;;;;;;;19.58;17.67;;;7.60;99.90;;;;;;4980941;28;20204;-41
2021/01/29 07:52:40;;;;;;;20.38;18.30;;;7.60;99.90;;;;;;4970047;28;20219;-45
2021/01/29 07:55:22;;;;;;;19.40;17.50;;;7.60;99.90;;;;;;4982896;28;20193;-45
2021/01/29 07:58:20;;;;;;;18.77;16.83;;;7.60;99.90;;;;;;4983830;28;20241;-43
2021/01/29 08:01:19;;;;;;;23.80;19.33;;;7.50;99.90;;;;;;4975417;28;20193;-45
2021/01/29 08:04:21;;;;;;;19.42;17.55;;;7.40;99.90;;;;;;4969624;28;20201;-42
2021/01/29 08:06:59;;;;;;;23.25;20.25;;;7.40;99.90;;;;;;4974779;28;20229;-41
2021/01/29 08:09:35;;;;;;;23.15;20.75;;;7.30;99.90;;;;;;4975271;28;20205;-42
2021/01/29 08:12:11;;;;;;;22.45;20.25;;;7.30;99.90;;;;;;4973624;28;20299;-48
2021/01/29 08:15:07;;;;;;;21.45;19.25;;;7.20;99.90;;;;;;4985984;28;20196;-42
2021/01/29 08:18:06;;;;;;;21.70;19.60;;;7.20;99.90;;;;;;4999464;28;20204;-42
2021/01/29 08:20:54;;;;;;;23.65;20.35;;;7.20;99.90;;;;;;4980754;28;20279;-41
2021/01/29 08:23:32;;;;;;;21.85;19.65;;;7.20;99.90;;;;;;4983321;28;20216;-42
2021/01/29 08:26:24;;;;;;;20.67;18.48;;;7.20;99.90;;;;;;4972341;28;20248;-46
2021/01/29 08:29:27;;;;;;;21.75;19.55;;;7.20;99.90;;;;;;4976359;28;20352;-41
2021/01/29 08:32:43;;;;;;;22.20;20.05;;;7.30;99.90;;;;;;4971617;28;20343;-42
2021/01/29 08:35:28;;;;;;;21.77;19.48;;;7.40;99.90;;;;;;4922157;29;20302;-42
2021/01/29 08:38:08;;;;;;;22.60;20.20;;;7.40;99.90;;;;;;4913298;29;20207;-45
2021/01/29 08:40:48;;;;;;;21.98;19.75;;;7.30;99.90;;;;;;4920535;29;20593;-42
2021/01/29 08:43:42;;;;;;;22.05;19.80;;;7.20;99.90;;;;;;4923286;29;20245;-42
2021/01/29 08:46:23;;;;;;;23.73;19.73;;;7.30;99.90;;;;;;4917374;29;20292;-44
2021/01/29 08:49:22;;;;;;;20.65;18.67;;;7.30;99.90;;;;;;4904997;29;20583;-43
2021/01/29 08:52:00;;;;;;;20.73;17.65;;;7.30;99.90;;;;;;4910010;29;20215;-42
2021/01/29 08:54:47;;;;;;;20.45;16.48;;;7.20;99.90;;;;;;4922863;29;20346;-43
2021/01/29 08:57:27;;;;;;;21.45;19.13;;;7.20;99.90;;;;;;4907959;29;20278;-40
2021/01/29 09:00:01;;;;;;;17.38;15.57;;;7.20;99.90;;;;;;4919712;29;20887;-42
2021/01/29 09:02:53;;;;;;;21.92;17.98;;;7.20;99.90;;;;;;4917637;29;20257;-41
2021/01/29 09:05:25;;;;;;;21.48;18.67;;;7.20;99.90;;;;;;4922315;29;20278;-42
2021/01/29 09:08:01;;;;;;;20.02;17.95;;;7.10;99.90;;;;;;4905512;29;20211;-41
2021/01/29 09:10:51;;;;;;;24.65;17.85;;;7.10;99.90;;;;;;4949371;28;20208;-40
2021/01/29 09:13:24;;;;;;;20.30;16.52;;;7.10;99.90;;;;;;4989450;28;20228;-44
2021/01/29 09:16:01;;;;;;;19.13;17.10;;;7.10;99.90;;;;;;4981210;28;20212;-43
2021/01/29 09:18:39;;;;;;;22.85;18.05;;;7.10;99.90;;;;;;4964039;28;20303;-40
2021/01/29 09:21:20;;;;;;;18.42;16.25;;;7.10;99.90;;;;;;4978507;28;20200;-46
2021/01/29 09:24:02;;;;;;;21.13;17.35;;;7.10;99.90;;;;;;4979990;28;20271;-41
2021/01/29 09:26:36;;;;;;;18.15;16.25;;;7.00;99.90;;;;;;4971085;28;20197;-41
2021/01/29 09:29:14;;;;;;;21.45;17.00;;;7.00;99.90;;;;;;4995851;28;20200;-41
2021/01/29 09:31:53;;;;;;;19.88;17.55;;;7.00;99.90;;;;;;4978475;28;20197;-42
2021/01/29 09:34:28;;;;;;;21.55;18.02;;;7.00;99.90;;;;;;4983398;28;20235;-40
2021/01/29 09:37:03;;;;;;;24.23;17.58;;;7.00;99.90;;;;;;4981965;28;20239;-42
2021/01/29 09:40:01;;;;;;;25.35;18.80;;;7.00;99.90;;;;;;4971434;28;20250;-42
2021/01/29 09:42:53;;;;;;;20.80;17.42;;;7.00;99.90;;;;;;4995803;28;20199;-42
2021/01/29 09:45:26;;;;;;;23.45;18.13;;;7.00;99.90;;;;;;4968928;28;20229;-41
2021/01/29 09:48:03;;;;;;;20.65;17.42;;;6.90;99.90;;;;;;4963732;28;20209;-41
2021/01/29 09:50:35;;;;;;;18.40;16.55;;;7.00;99.90;;;;;;4979841;28;20211;-40
2021/01/29 09:53:28;;;;;;;20.95;17.13;;;7.00;99.90;;;;;;4982823;28;20208;-41
2021/01/29 09:56:03;;;;;;;22.70;17.08;;;7.00;99.90;;;;;;4968786;28;20229;-40
2021/01/29 09:58:42;;;;;;;19.92;16.25;;;7.00;99.90;;;;;;4967946;28;20208;-41
2021/01/29 10:01:15;;;;;;;19.75;16.75;;;7.10;99.90;;;;;;4986236;28;20223;-41
2021/01/29 10:03:58;;;;;;;18.88;16.88;;;7.10;99.90;;;;;;4986745;28;20511;-44
2021/01/29 10:06:33;;;;;;;21.42;16.58;;;7.10;99.90;;;;;;4987056;28;20623;-43
2021/01/29 10:09:10;;;;;;;19.50;17.50;;;7.20;99.90;;;;;;4986479;28;20285;-39
2021/01/29 10:11:45;;;;;;;21.38;19.10;;;7.20;99.90;;;;;;4974512;28;20276;-40
2021/01/29 10:14:20;;;;;;;20.13;18.02;;;7.20;99.90;;;;;;4986818;28;20208;-39
2021/01/29 10:16:56;;;;;;;21.35;16.92;;;7.20;99.90;;;;;;4978455;28;20200;-41
2021/01/29 10:19:41;;;;;;;19.00;16.60;;;7.10;99.90;;;;;;4979842;28;20226;-40
2021/01/29 10:22:34;;;;;;;22.70;17.33;;;7.10;99.90;;;;;;4981155;28;20232;-41
2021/01/29 10:25:23;;;;;;;19.70;17.52;;;7.10;99.90;;;;;;4977250;28;20233;-42
2021/01/29 10:27:56;;;;;;;19.55;16.30;;;7.10;99.90;;;;;;4973378;28;20527;-40
2021/01/29 10:30:36;;;;;;;18.15;14.50;;;7.00;99.90;;;;;;4979341;28;20200;-42
2021/01/29 10:33:11;;;;;;;15.85;14.15;;;7.10;99.90;;;;;;4973885;28;20208;-40
2021/01/29 10:35:49;;;;;;;14.93;13.32;;;7.00;99.90;;;;;;4969612;28;20311;-41
2021/01/29 10:38:23;;;;;;;16.55;13.50;;;7.00;99.90;;;;;;4982765;28;20433;-41
2021/01/29 10:41:05;;;;;;;18.50;15.10;;;6.80;99.90;;;;;;4980595;28;20216;-41
2021/01/29 10:43:43;;;;;;;18.08;14.68;;;6.80;99.90;;;;;;4974654;28;20260;-41
2021/01/29 10:46:49;;;;;;;17.17;15.05;;;6.90;99.90;;;;;;4983063;28;20332;-41
2021/01/29 10:49:29;;;;;;;18.15;15.10;;;6.80;99.90;;;;;;4985014;28;20271;-41
2021/01/29 10:52:07;;;;;;;18.60;15.38;;;6.80;99.90;;;;;;4969615;28;20316;-40
2021/01/29 10:54:41;;;;;;;17.70;14.05;;;6.70;99.90;;;;;;4977349;28;20213;-40
2021/01/29 10:57:19;;;;;;;16.15;13.52;;;6.60;99.90;;;;;;4970543;28;20200;-41
2021/01/29 10:59:54;;;;;;;16.83;13.95;;;6.60;99.90;;;;;;4971844;28;20881;-40
2021/01/29 11:02:34;;;;;;;14.82;13.13;;;6.50;99.90;;;;;;4975767;28;20259;-40
2021/01/29 11:05:09;;;;;;;15.95;13.40;;;6.60;99.90;;;;;;4975307;28;20236;-40
2021/01/29 11:07:44;;;;;;;15.55;12.95;;;6.60;99.90;;;;;;4971575;28;20216;-40
2021/01/29 11:10:31;;;;;;;16.38;13.38;;;6.50;99.90;;;;;;4981954;28;20212;-40
2021/01/29 11:13:06;;;;;;;15.52;13.70;;;6.50;99.90;;;;;;4985135;28;20260;-40
2021/01/29 11:15:45;;;;;;;16.80;13.90;;;6.50;99.90;;;;;;4972761;28;20204;-40
2021/01/29 11:18:25;;;;;;;15.02;13.40;;;6.60;99.90;;;;;;4980720;28;20224;-41
2021/01/29 11:21:04;;;;;;;15.77;13.23;;;6.60;99.90;;;;;;4975221;28;20213;-40
2021/01/29 11:23:45;;;;;;;14.13;12.73;;;6.60;99.90;;;;;;4976549;28;20232;-41
2021/01/29 11:26:22;;;;;;;14.60;12.80;;;6.60;99.90;;;;;;4980539;28;20299;-40
2021/01/29 11:29:05;;;;;;;15.48;13.30;;;6.70;99.90;;;;;;4980190;28;20230;-40
2021/01/29 11:31:42;;;;;;;14.25;12.50;;;6.70;99.90;;;;;;4973292;28;20201;-40
2021/01/29 11:34:25;;;;;;;12.07;10.48;;;6.70;99.90;;;;;;4976034;28;20215;-40
2021/01/29 11:37:02;;;;;;;13.75;12.35;;;6.70;99.90;;;;;;4980646;28;20208;-41
2021/01/29 11:39:41;;;;;;;13.10;11.75;;;6.70;99.90;;;;;;4970065;28;20229;-42
2021/01/29 11:42:22;;;;;;;14.70;13.18;;;6.70;99.90;;;;;;4984786;28;20323;-40
2021/01/29 11:45:02;;;;;;;14.82;12.05;;;6.80;99.90;;;;;;4976761;28;20663;-40
2021/01/29 11:47:38;;;;;;;12.35;11.02;;;6.80;99.90;;;;;;4974867;28;20227;-40
2021/01/29 11:50:21;;;;;;;12.65;10.93;;;6.80;99.90;;;;;;4984927;28;20204;-41
2021/01/29 11:52:58;;;;;;;16.52;13.00;;;6.80;99.90;;;;;;4984063;28;20228;-40
2021/01/29 11:55:33;;;;;;;14.73;12.95;;;6.80;99.90;;;;;;4980245;28;20208;-40
2021/01/29 11:58:12;;;;;;;12.73;11.43;;;6.80;99.90;;;;;;4984876;28;20670;-40
2021/01/29 12:00:47;;;;;;;14.70;11.70;;;6.80;99.90;;;;;;4982401;28;20226;-40
2021/01/29 12:03:24;;;;;;;13.23;11.93;;;6.80;99.90;;;;;;4982492;28;20200;-40
2021/01/29 12:06:01;;;;;;;14.02;12.13;;;6.90;99.90;;;;;;4980223;28;20310;-40
2021/01/29 12:08:56;;;;;;;15.05;11.52;;;6.90;99.90;;;;;;4984817;28;20212;-40
2021/01/29 12:11:34;;;;;;;15.02;12.18;;;6.90;99.90;;;;;;4972654;28;20200;-40
2021/01/29 12:14:17;;;;;;;13.70;12.20;;;6.80;99.90;;;;;;4984476;28;20204;-40
2021/01/29 12:16:56;;;;;;;12.80;11.40;;;6.80;99.90;;;;;;4982161;28;20215;-39
2021/01/29 12:19:31;;;;;;;15.45;12.02;;;6.90;99.90;;;;;;4984907;28;20232;-41
2021/01/29 12:22:14;;;;;;;18.83;13.40;;;6.90;99.90;;;;;;4968100;28;20212;-40
2021/01/29 12:24:56;;;;;;;15.98;13.30;;;6.90;99.90;;;;;;4968806;28;20316;-40
2021/01/29 12:27:38;;;;;;;14.05;11.50;;;6.90;99.90;;;;;;4983433;28;20287;-40
2021/01/29 12:30:14;;;;;;;16.83;12.80;;;6.70;99.90;;;;;;4984530;28;20275;-40
2021/01/29 12:33:00;;;;;;;17.63;13.07;;;6.60;99.90;;;;;;4983036;28;20207;-40
2021/01/29 12:35:39;;;;;;;16.73;12.65;;;6.50;99.90;;;;;;4970123;28;20202;-39
2021/01/29 12:38:19;;;;;;;17.95;13.32;;;6.40;99.90;;;;;;4985107;28;20218;-40
2021/01/29 12:40:54;;;;;;;19.20;14.18;;;6.40;99.90;;;;;;4981208;28;20260;-40
2021/01/29 12:43:32;;;;;;;15.45;12.95;;;6.30;99.90;;;;;;4983800;28;20217;-40
2021/01/29 12:46:08;;;;;;;18.30;15.38;;;6.30;99.90;;;;;;4984259;28;20316;-40
2021/01/29 12:48:55;;;;;;;21.98;14.32;;;6.30;99.90;;;;;;4984079;28;20271;-40
2021/01/29 12:51:30;;;;;;;24.10;14.55;;;6.30;99.90;;;;;;4981774;28;20208;-39
2021/01/29 12:54:15;;;;;;;31.35;17.20;;;6.30;99.90;;;;;;4984092;28;20208;-40
2021/01/29 12:56:59;;;;;;;24.92;14.80;;;6.40;99.90;;;;;;4983021;28;20270;-40
2021/01/29 12:59:45;;;;;;;24.33;14.80;;;6.40;99.90;;;;;;4981449;28;20630;-40
2021/01/29 13:02:52;;;;;;;21.10;14.35;;;6.40;99.90;;;;;;4974862;28;20241;-41
2021/01/29 13:05:33;;;;;;;25.08;17.35;;;6.50;99.90;;;;;;4983787;28;20690;-40
2021/01/29 13:08:23;;;;;;;34.22;18.00;;;6.40;99.90;;;;;;4979865;28;20208;-41
2021/01/29 13:11:01;;;;;;;24.73;17.15;;;6.50;99.90;;;;;;4969814;28;20221;-40
2021/01/29 13:13:41;;;;;;;38.47;18.52;;;6.50;99.90;;;;;;4975266;28;20228;-40
2021/01/29 13:16:18;;;;;;;29.45;17.13;;;6.50;99.90;;;;;;4967259;28;20209;-40
2021/01/29 13:19:05;;;;;;;30.50;16.83;;;6.50;99.90;;;;;;4964133;28;20752;-40
2021/01/29 13:21:50;;;;;;;33.65;17.67;;;6.50;99.90;;;;;;4973572;28;20216;-40
2021/01/29 13:24:28;;;;;;;25.27;17.33;;;6.60;99.90;;;;;;4976526;28;20200;-39
2021/01/29 13:27:03;;;;;;;28.75;17.48;;;6.60;99.90;;;;;;4964323;28;20208;-40
2021/01/29 13:29:35;;;;;;;30.85;18.83;;;6.50;99.90;;;;;;4970169;28;20193;-40
2021/01/29 13:32:19;;;;;;;24.42;17.33;;;6.60;99.90;;;;;;4981066;28;20220;-40
2021/01/29 13:34:51;;;;;;;26.40;16.42;;;6.60;99.90;;;;;;4983465;28;20209;-40
2021/01/29 13:37:25;;;;;;;23.02;14.68;;;6.60;99.90;;;;;;4973350;28;20217;-41
2021/01/29 13:40:07;;;;;;;29.60;18.88;;;6.70;99.90;;;;;;4967449;28;20209;-40
2021/01/29 13:42:38;;;;;;;28.20;20.23;;;6.70;99.90;;;;;;4963493;28;20213;-40
2021/01/29 13:45:15;;;;;;;26.75;17.73;;;6.70;99.90;;;;;;4968488;28;20225;-40
2021/01/29 13:47:48;;;;;;;29.08;18.98;;;6.70;99.90;;;;;;4982207;28;20208;-40
2021/01/29 13:50:24;;;;;;;25.63;18.83;;;6.70;99.90;;;;;;4983299;28;20252;-40
2021/01/29 13:52:57;;;;;;;28.00;17.92;;;6.80;99.90;;;;;;4982331;28;20235;-39
2021/01/29 13:55:31;;;;;;;27.55;18.73;;;6.80;99.90;;;;;;4971167;28;20268;-40
2021/01/29 13:58:08;;;;;;;27.42;18.55;;;6.70;99.90;;;;;;4973220;28;20223;-40
2021/01/29 14:00:44;;;;;;;23.00;18.25;;;6.70;99.90;;;;;;4982578;28;20227;-39